Time;durP1;ratioP1;P1;durP2;ratioP2;P2;SDS_P1;SDS_P2;PMS_P1;PMS_P2;Temp;Humidity;BMP_temperature;BMP_pressure;BME280_temperature;BME280_humidity;BME280_pressure;Samples;Min_cycle;Max_cycle;Signal;HPM_P1;HPM_P2
2023/08/10 00:01:01;;;;;;;2.55;1.10;;;;;;;;;;6275073;22;20090;-87
2023/08/10 00:03:28;;;;;;;2.25;0.90;;;;;;;;;;6275300;22;20019;-87
2023/08/10 00:05:54;;;;;;;2.20;0.95;;;;;;;;;;6302328;22;20015;-86
2023/08/10 00:08:20;;;;;;;1.85;1.00;;;;;;;;;;6274164;22;20458;-86
2023/08/10 00:10:50;;;;;;;1.90;1.08;;;;;;;;;;6303355;22;20094;-87
2023/08/10 00:13:16;;;;;;;1.92;1.00;;;;;;;;;;6302586;22;20018;-86
2023/08/10 00:15:43;;;;;;;1.95;0.90;;;;;;;;;;6303375;22;20094;-86
2023/08/10 00:18:09;;;;;;;2.53;1.10;;;;;;;;;;6274754;22;20026;-86
2023/08/10 00:20:35;;;;;;;2.10;0.90;;;;;;;;;;6275079;22;20019;-86
2023/08/10 00:23:02;;;;;;;2.53;1.08;;;;;;;;;;6301394;22;20015;-86
2023/08/10 00:25:28;;;;;;;3.15;1.00;;;;;;;;;;6302663;22;20015;-86
2023/08/10 00:27:55;;;;;;;1.52;0.90;;;;;;;;;;6302266;22;20237;-86
2023/08/10 00:30:22;;;;;;;6.13;1.33;;;;;;;;;;6302950;22;20012;-86
2023/08/10 00:32:48;;;;;;;3.03;1.27;;;;;;;;;;6303400;22;20011;-86
2023/08/10 00:35:14;;;;;;;0.65;0.60;;;;;;;;;;6301242;22;20015;-86
2023/08/10 00:37:40;;;;;;;1.42;0.68;;;;;;;;;;6302371;22;20474;-87
2023/08/10 00:40:12;;;;;;;2.78;1.10;;;;;;;;;;6302100;22;20034;-86
2023/08/10 00:42:38;;;;;;;3.03;1.02;;;;;;;;;;6302681;22;20332;-85
2023/08/10 00:45:04;;;;;;;2.17;0.82;;;;;;;;;;6302086;22;20064;-86
2023/08/10 00:47:30;;;;;;;2.60;1.10;;;;;;;;;;6302844;22;20061;-86
2023/08/10 00:49:56;;;;;;;3.58;0.93;;;;;;;;;;6301853;22;20011;-86
2023/08/10 00:52:22;;;;;;;2.25;0.73;;;;;;;;;;6302196;22;20018;-86
2023/08/10 00:54:48;;;;;;;0.98;0.85;;;;;;;;;;6302795;22;20329;-86
2023/08/10 00:57:14;;;;;;;1.95;1.15;;;;;;;;;;6301931;22;20017;-86
2023/08/10 00:59:40;;;;;;;1.73;1.00;;;;;;;;;;6303452;22;20098;-86
2023/08/10 01:02:06;;;;;;;1.83;0.90;;;;;;;;;;6303916;22;20018;-86
2023/08/10 01:04:32;;;;;;;1.55;0.80;;;;;;;;;;6304278;22;20012;-86
2023/08/10 01:07:11;;;;;;;3.28;0.93;;;;;;;;;;6304179;22;20698;-86
2023/08/10 01:09:57;;;;;;;1.45;0.90;;;;;;;;;;6277679;22;20541;-86
2023/08/10 01:12:32;;;;;;;2.20;1.00;;;;;;;;;;6226282;22;20019;-86
2023/08/10 01:15:02;;;;;;;2.08;0.80;;;;;;;;;;6304354;22;20321;-86
2023/08/10 01:17:30;;;;;;;1.38;0.90;;;;;;;;;;6303225;22;20171;-86
2023/08/10 01:19:59;;;;;;;2.70;1.02;;;;;;;;;;6303389;22;20021;-86
2023/08/10 01:22:34;;;;;;;1.92;1.00;;;;;;;;;;6303706;22;20008;-86
2023/08/10 01:25:00;;;;;;;3.08;1.02;;;;;;;;;;6304167;22;20012;-86
2023/08/10 01:27:28;;;;;;;1.65;1.02;;;;;;;;;;6304661;22;20007;-86
2023/08/10 01:29:54;;;;;;;3.38;1.40;;;;;;;;;;6303727;22;20018;-87
2023/08/10 01:32:20;;;;;;;1.98;1.15;;;;;;;;;;6276060;22;20015;-87
2023/08/10 01:34:46;;;;;;;2.25;1.00;;;;;;;;;;6304289;22;20018;-86
2023/08/10 01:37:12;;;;;;;1.95;0.90;;;;;;;;;;6303285;22;20019;-86
2023/08/10 01:39:38;;;;;;;1.90;1.23;;;;;;;;;;6304447;22;20094;-86
2023/08/10 01:42:04;;;;;;;2.65;1.15;;;;;;;;;;6276904;22;20328;-86
2023/08/10 01:44:30;;;;;;;1.50;0.90;;;;;;;;;;6304073;22;20043;-86
2023/08/10 01:47:00;;;;;;;2.90;1.50;;;;;;;;;;6303124;22;20030;-86
2023/08/10 01:49:26;;;;;;;;;;;;;;;;;;6304407;22;20344;-86
2023/08/10 01:51:53;;;;;;;1.40;0.90;;;;;;;;;;6304133;22;19914;-86
2023/08/10 01:54:19;;;;;;;3.33;0.98;;;;;;;;;;6304394;22;20026;-86
2023/08/10 01:56:46;;;;;;;3.05;1.33;;;;;;;;;;6304671;22;20324;-86
2023/08/10 01:59:12;;;;;;;1.65;1.00;;;;;;;;;;6275658;22;20026;-86
2023/08/10 02:01:38;;;;;;;1.98;1.02;;;;;;;;;;6275811;22;20068;-86
2023/08/10 02:04:04;;;;;;;2.65;1.10;;;;;;;;;;6303652;22;20047;-86
2023/08/10 02:06:31;;;;;;;1.77;1.30;;;;;;;;;;6303825;22;20015;-85
2023/08/10 02:08:57;;;;;;;1.20;1.08;;;;;;;;;;6303663;22;20339;-86
2023/08/10 02:11:23;;;;;;;3.05;1.00;;;;;;;;;;6302984;22;20062;-86
2023/08/10 02:13:49;;;;;;;1.92;1.02;;;;;;;;;;6276333;22;20019;-86
2023/08/10 02:16:15;;;;;;;2.47;1.08;;;;;;;;;;6302892;22;20387;-86
2023/08/10 02:18:41;;;;;;;1.67;1.23;;;;;;;;;;6304457;22;20012;-86
2023/08/10 02:21:07;;;;;;;2.17;1.17;;;;;;;;;;6275341;22;20050;-86
2023/08/10 02:23:35;;;;;;;2.78;1.02;;;;;;;;;;6304257;22;20030;-86
2023/08/10 02:26:01;;;;;;;1.50;1.05;;;;;;;;;;6276071;22;20088;-86
2023/08/10 02:28:27;;;;;;;3.17;1.10;;;;;;;;;;6303905;22;20022;-86
2023/08/10 02:30:53;;;;;;;2.28;1.23;;;;;;;;;;6275272;22;20048;-87
2023/08/10 02:33:19;;;;;;;2.05;1.15;;;;;;;;;;6303659;22;20011;-86
2023/08/10 02:35:45;;;;;;;3.15;1.10;;;;;;;;;;6303814;22;20015;-86
2023/08/10 02:38:11;;;;;;;2.67;1.02;;;;;;;;;;6302250;22;20396;-86
2023/08/10 02:40:37;;;;;;;2.33;1.00;;;;;;;;;;6303494;22;20022;-86
2023/08/10 02:43:03;;;;;;;1.27;0.93;;;;;;;;;;6303456;22;20370;-86
2023/08/10 02:45:29;;;;;;;3.63;1.08;;;;;;;;;;6303215;22;20026;-85
2023/08/10 02:47:55;;;;;;;1.90;0.90;;;;;;;;;;6300846;22;20343;-86
2023/08/10 02:50:21;;;;;;;4.05;1.13;;;;;;;;;;6301561;22;20094;-86
2023/08/10 02:52:47;;;;;;;1.73;1.10;;;;;;;;;;6304201;22;20367;-86
2023/08/10 02:55:13;;;;;;;1.95;1.13;;;;;;;;;;6275713;22;20038;-86
2023/08/10 02:57:39;;;;;;;1.88;1.00;;;;;;;;;;6303570;22;20019;-86
2023/08/10 03:00:06;;;;;;;1.17;1.08;;;;;;;;;;6274849;22;20495;-86
2023/08/10 03:02:33;;;;;;;2.00;1.10;;;;;;;;;;6275764;22;20019;-86
2023/08/10 03:04:59;;;;;;;1.00;0.80;;;;;;;;;;6275544;22;20378;-86
2023/08/10 03:07:26;;;;;;;2.10;0.95;;;;;;;;;;6303653;22;20336;-86
2023/08/10 03:09:52;;;;;;;1.83;1.08;;;;;;;;;;6303162;22;20007;-86
2023/08/10 03:12:18;;;;;;;1.80;1.27;;;;;;;;;;6303148;22;20011;-86
2023/08/10 03:14:44;;;;;;;1.95;1.05;;;;;;;;;;6303348;22;20011;-86
2023/08/10 03:17:10;;;;;;;2.20;1.33;;;;;;;;;;6301693;22;20018;-86
2023/08/10 03:19:36;;;;;;;1.25;1.05;;;;;;;;;;6303188;22;20016;-86
2023/08/10 03:22:02;;;;;;;2.38;1.10;;;;;;;;;;6302658;22;20011;-86
2023/08/10 03:24:28;;;;;;;2.40;1.30;;;;;;;;;;6303381;22;20025;-86
2023/08/10 03:26:54;;;;;;;2.88;1.40;;;;;;;;;;6302924;22;20065;-86
2023/08/10 03:29:20;;;;;;;2.00;0.90;;;;;;;;;;6274588;22;20019;-87
2023/08/10 03:31:46;;;;;;;1.35;1.10;;;;;;;;;;6304019;22;20047;-86
2023/08/10 03:34:12;;;;;;;2.33;1.02;;;;;;;;;;6275105;22;20019;-87
2023/08/10 03:36:38;;;;;;;3.55;1.30;;;;;;;;;;6304063;22;20018;-86
2023/08/10 03:39:05;;;;;;;1.58;1.13;;;;;;;;;;6302379;22;20448;-87
2023/08/10 03:41:31;;;;;;;4.18;1.40;;;;;;;;;;6302486;22;20448;-86
2023/08/10 03:43:57;;;;;;;4.38;1.13;;;;;;;;;;6301992;22;20018;-86
2023/08/10 03:46:23;;;;;;;1.00;0.93;;;;;;;;;;6249996;22;20015;-87
2023/08/10 03:48:49;;;;;;;1.60;1.13;;;;;;;;;;6275479;22;20395;-87
2023/08/10 03:51:15;;;;;;;1.90;1.27;;;;;;;;;;6273861;22;20019;-87
2023/08/10 03:53:41;;;;;;;2.45;1.20;;;;;;;;;;6303536;22;20015;-87
2023/08/10 03:56:07;;;;;;;1.88;1.20;;;;;;;;;;6302877;22;20014;-87
2023/08/10 03:58:33;;;;;;;3.28;1.30;;;;;;;;;;6302663;22;20011;-87
2023/08/10 04:01:02;;;;;;;2.15;1.23;;;;;;;;;;6302037;22;20073;-86
2023/08/10 04:03:27;;;;;;;2.47;1.65;;;;;;;;;;6302486;22;20479;-86
2023/08/10 04:05:54;;;;;;;1.92;1.20;;;;;;;;;;6275387;22;20011;-87
2023/08/10 04:08:20;;;;;;;2.80;1.70;;;;;;;;;;6303100;22;20019;-87
2023/08/10 04:10:46;;;;;;;3.35;1.52;;;;;;;;;;6303072;22;20096;-87
2023/08/10 04:13:12;;;;;;;1.65;1.38;;;;;;;;;;6272987;22;20019;-87
2023/08/10 04:15:38;;;;;;;2.08;1.50;;;;;;;;;;6302213;22;20608;-86
2023/08/10 04:18:04;;;;;;;1.50;0.93;;;;;;;;;;6301649;22;20015;-87
2023/08/10 04:20:30;;;;;;;1.75;1.33;;;;;;;;;;6302871;22;20011;-86
2023/08/10 04:22:57;;;;;;;1.25;1.15;;;;;;;;;;6302360;22;20060;-87
2023/08/10 04:25:23;;;;;;;2.78;1.30;;;;;;;;;;6302025;22;20007;-87
2023/08/10 04:27:49;;;;;;;2.85;1.33;;;;;;;;;;6302772;22;20025;-87
2023/08/10 04:30:16;;;;;;;2.97;1.33;;;;;;;;;;6302666;22;20026;-87
2023/08/10 04:32:43;;;;;;;1.70;1.30;;;;;;;;;;6302533;22;20046;-87
2023/08/10 04:35:09;;;;;;;4.03;2.88;;;;;;;;;;6300175;22;20093;-87
2023/08/10 04:37:35;;;;;;;1.70;1.42;;;;;;;;;;6303100;22;20352;-87
2023/08/10 04:40:05;;;;;;;2.95;1.40;;;;;;;;;;6300995;22;20025;-87
2023/08/10 04:42:31;;;;;;;1.73;1.35;;;;;;;;;;6302682;22;20015;-87
2023/08/10 04:44:57;;;;;;;2.97;1.70;;;;;;;;;;6274139;22;20015;-87
2023/08/10 04:47:24;;;;;;;1.80;1.40;;;;;;;;;;6302454;22;20111;-87
2023/08/10 04:49:50;;;;;;;1.48;1.38;;;;;;;;;;6301070;22;20373;-87
2023/08/10 04:52:16;;;;;;;2.35;1.40;;;;;;;;;;6300688;22;20011;-85
2023/08/10 04:54:44;;;;;;;2.90;1.80;;;;;;;;;;6300864;22;20019;-91
2023/08/10 04:57:10;;;;;;;3.38;1.85;;;;;;;;;;6273682;22;20091;-89
2023/08/10 04:59:36;;;;;;;4.00;1.73;;;;;;;;;;6275524;22;20769;-88
2023/08/10 05:02:02;;;;;;;3.67;1.52;;;;;;;;;;6301911;22;20019;-86
2023/08/10 05:04:28;;;;;;;2.42;1.42;;;;;;;;;;6302123;22;20075;-86
2023/08/10 05:06:54;;;;;;;3.85;1.80;;;;;;;;;;6302210;22;20060;-91
2023/08/10 05:09:20;;;;;;;2.50;1.35;;;;;;;;;;6275295;22;20019;-88
2023/08/10 05:11:46;;;;;;;4.05;1.80;;;;;;;;;;6276233;22;20387;-89
2023/08/10 05:14:12;;;;;;;4.75;1.50;;;;;;;;;;6274384;22;20065;-87
2023/08/10 05:16:38;;;;;;;3.88;1.88;;;;;;;;;;6302306;22;20011;-89
2023/08/10 05:19:04;;;;;;;3.70;1.85;;;;;;;;;;6302006;22;20441;-88
2023/08/10 05:21:30;;;;;;;3.42;1.58;;;;;;;;;;6301770;22;20034;-87
2023/08/10 05:23:56;;;;;;;3.70;1.50;;;;;;;;;;6301372;22;20007;-88
2023/08/10 05:26:22;;;;;;;2.00;1.40;;;;;;;;;;6301579;22;20011;-88
2023/08/10 05:28:49;;;;;;;2.30;1.52;;;;;;;;;;6302667;22;20102;-88
2023/08/10 05:31:15;;;;;;;3.72;1.48;;;;;;;;;;6272976;22;20362;-87
2023/08/10 05:33:41;;;;;;;4.18;1.92;;;;;;;;;;6302465;22;20011;-88
2023/08/10 05:36:07;;;;;;;2.42;1.45;;;;;;;;;;6301790;22;20386;-89
2023/08/10 05:38:33;;;;;;;1.90;1.70;;;;;;;;;;6301206;22;20046;-89
2023/08/10 05:40:59;;;;;;;2.47;2.20;;;;;;;;;;6273131;22;20031;-90
2023/08/10 05:43:26;;;;;;;3.55;1.85;;;;;;;;;;6275076;22;20018;-88
2023/08/10 05:45:53;;;;;;;6.68;2.55;;;;;;;;;;6302360;22;20011;-89
2023/08/10 05:48:19;;;;;;;2.72;1.52;;;;;;;;;;6304060;22;20098;-88
2023/08/10 05:50:45;;;;;;;3.15;1.73;;;;;;;;;;6304157;22;20015;-90
2023/08/10 05:53:11;;;;;;;4.13;1.50;;;;;;;;;;6274103;22;20027;-87
2023/08/10 05:55:37;;;;;;;2.70;1.30;;;;;;;;;;6304828;22;20011;-89
2023/08/10 05:58:03;;;;;;;3.17;2.13;;;;;;;;;;6303705;22;20018;-89
2023/08/10 06:00:29;;;;;;;3.55;1.52;;;;;;;;;;6275683;22;20030;-92
2023/08/10 06:02:55;;;;;;;4.18;1.48;;;;;;;;;;6304351;22;20007;-91
2023/08/10 06:05:21;;;;;;;3.33;1.33;;;;;;;;;;6304238;22;20029;-90
2023/08/10 06:07:47;;;;;;;2.45;1.80;;;;;;;;;;6303603;22;20013;-88
2023/08/10 06:10:14;;;;;;;3.83;1.80;;;;;;;;;;6275955;22;20391;-87
2023/08/10 06:12:41;;;;;;;2.22;1.50;;;;;;;;;;6304684;22;20337;-88
2023/08/10 06:15:08;;;;;;;2.05;1.52;;;;;;;;;;6303194;22;20025;-87
2023/08/10 06:17:34;;;;;;;2.42;1.52;;;;;;;;;;6304277;22;20013;-89
2023/08/10 06:20:02;;;;;;;3.17;1.50;;;;;;;;;;6302955;22;20011;-89
2023/08/10 06:22:28;;;;;;;3.65;1.70;;;;;;;;;;6303758;22;20390;-87
2023/08/10 06:24:54;;;;;;;2.50;1.63;;;;;;;;;;6275571;22;20015;-88
2023/08/10 06:27:20;;;;;;;2.92;1.45;;;;;;;;;;6303641;22;20026;-86
2023/08/10 06:29:46;;;;;;;3.00;1.45;;;;;;;;;;6302199;22;20015;-87
2023/08/10 06:32:12;;;;;;;4.40;1.70;;;;;;;;;;6301361;22;20023;-91
2023/08/10 06:34:38;;;;;;;2.88;1.27;;;;;;;;;;6275705;22;20019;-88
2023/08/10 06:37:04;;;;;;;4.72;1.80;;;;;;;;;;6301082;22;20050;-86
2023/08/10 06:39:30;;;;;;;2.35;1.25;;;;;;;;;;6272589;22;20023;-87
2023/08/10 06:41:56;;;;;;;3.30;1.30;;;;;;;;;;6273354;22;20068;-89
2023/08/10 06:44:22;;;;;;;5.85;1.50;;;;;;;;;;6303729;22;20041;-89
2023/08/10 06:46:48;;;;;;;3.28;1.20;;;;;;;;;;6303373;22;20011;-86
2023/08/10 06:49:16;;;;;;;4.82;0.98;;;;;;;;;;6302794;22;20287;-87
2023/08/10 06:51:42;;;;;;;2.25;1.00;;;;;;;;;;6300204;22;20015;-85
2023/08/10 06:54:08;;;;;;;2.28;0.80;;;;;;;;;;6274988;22;20030;-86
2023/08/10 06:56:36;;;;;;;2.53;1.33;;;;;;;;;;6275823;22;20012;-85
2023/08/10 06:59:03;;;;;;;4.65;1.55;;;;;;;;;;6301662;22;20367;-85
2023/08/10 07:01:29;;;;;;;1.58;0.93;;;;;;;;;;6302000;22;20084;-85
2023/08/10 07:03:55;;;;;;;2.33;1.20;;;;;;;;;;6302339;22;20007;-85
2023/08/10 07:06:21;;;;;;;1.45;0.70;;;;;;;;;;6302649;22;20018;-85
2023/08/10 07:08:47;;;;;;;1.75;0.60;;;;;;;;;;6302803;22;20019;-87
2023/08/10 07:11:14;;;;;;;1.15;0.80;;;;;;;;;;6275578;22;20275;-88
2023/08/10 07:13:41;;;;;;;1.73;0.82;;;;;;;;;;6303027;22;20012;-86
2023/08/10 07:16:07;;;;;;;1.00;0.90;;;;;;;;;;6274634;22;20019;-86
2023/08/10 07:18:33;;;;;;;1.10;0.80;;;;;;;;;;6302660;22;20053;-86
2023/08/10 07:21:01;;;;;;;3.05;0.95;;;;;;;;;;6302293;22;20020;-87
2023/08/10 07:23:27;;;;;;;2.67;0.80;;;;;;;;;;6301733;22;20043;-87
2023/08/10 07:25:55;;;;;;;3.70;0.80;;;;;;;;;;6301872;22;20414;-91
2023/08/10 07:28:23;;;;;;;1.35;0.63;;;;;;;;;;6301239;22;20421;-87
2023/08/10 07:30:52;;;;;;;3.17;1.30;;;;;;;;;;6302785;22;20019;-86
2023/08/10 07:33:18;;;;;;;4.22;0.80;;;;;;;;;;6302771;22;20523;-87
2023/08/10 07:35:45;;;;;;;1.00;0.60;;;;;;;;;;6303111;22;20069;-87
2023/08/10 07:38:11;;;;;;;1.80;0.50;;;;;;;;;;6273730;22;20119;-87
2023/08/10 07:40:37;;;;;;;1.20;0.60;;;;;;;;;;6303267;22;20022;-85
2023/08/10 07:43:03;;;;;;;0.80;0.60;;;;;;;;;;6303140;22;20011;-84
2023/08/10 07:45:29;;;;;;;1.92;0.68;;;;;;;;;;6302368;22;20026;-85
2023/08/10 07:47:55;;;;;;;3.20;1.05;;;;;;;;;;6274933;22;20019;-85
2023/08/10 07:50:24;;;;;;;3.25;0.70;;;;;;;;;;6274250;22;20015;-85
2023/08/10 07:52:50;;;;;;;1.27;0.52;;;;;;;;;;6275107;22;20121;-86
2023/08/10 07:55:16;;;;;;;1.83;0.90;;;;;;;;;;6274515;22;20015;-86
2023/08/10 07:57:42;;;;;;;2.92;0.90;;;;;;;;;;6302589;22;20532;-86
2023/08/10 08:00:10;;;;;;;2.58;0.80;;;;;;;;;;6302660;22;20015;-85
2023/08/10 08:02:36;;;;;;;1.77;0.85;;;;;;;;;;6275523;22;20018;-84
2023/08/10 08:05:02;;;;;;;2.35;0.93;;;;;;;;;;6250365;22;20373;-87
2023/08/10 08:07:30;;;;;;;2.10;0.90;;;;;;;;;;6276044;22;20019;-86
2023/08/10 08:09:57;;;;;;;2.47;0.65;;;;;;;;;;6274109;22;20023;-86
2023/08/10 08:12:26;;;;;;;2.78;0.90;;;;;;;;;;6274983;22;20069;-87
2023/08/10 08:14:52;;;;;;;2.47;0.82;;;;;;;;;;6302968;22;20099;-85
2023/08/10 08:17:18;;;;;;;4.22;0.95;;;;;;;;;;6300877;22;20050;-84
2023/08/10 08:19:44;;;;;;;1.88;0.80;;;;;;;;;;6301756;22;20467;-84
2023/08/10 08:22:11;;;;;;;1.23;0.73;;;;;;;;;;6274506;22;20015;-84
2023/08/10 08:24:37;;;;;;;1.85;0.73;;;;;;;;;;6302841;22;20015;-84
2023/08/10 08:27:03;;;;;;;1.25;0.60;;;;;;;;;;6301356;22;20022;-84
2023/08/10 08:29:31;;;;;;;2.50;0.60;;;;;;;;;;6250292;22;20023;-89
2023/08/10 08:31:57;;;;;;;1.85;0.50;;;;;;;;;;6273297;22;20079;-90
2023/08/10 08:34:23;;;;;;;2.03;0.80;;;;;;;;;;6303676;22;20116;-92
2023/08/10 08:36:49;;;;;;;3.08;0.80;;;;;;;;;;6303523;22;20078;-90
2023/08/10 08:39:15;;;;;;;1.27;0.77;;;;;;;;;;6302393;22;20112;-90
2023/08/10 08:41:41;;;;;;;2.08;0.73;;;;;;;;;;6303240;22;20348;-87
2023/08/10 08:44:08;;;;;;;1.60;0.50;;;;;;;;;;6302510;22;20022;-89
2023/08/10 08:46:38;;;;;;;3.28;0.93;;;;;;;;;;6302047;22;20014;-87
2023/08/10 08:49:05;;;;;;;2.15;0.60;;;;;;;;;;6301964;22;20455;-91
2023/08/10 08:51:31;;;;;;;1.42;1.08;;;;;;;;;;6303180;22;20399;-88
2023/08/10 08:54:00;;;;;;;2.55;0.70;;;;;;;;;;6302684;22;20069;-87
2023/08/10 08:56:26;;;;;;;3.80;0.60;;;;;;;;;;6274312;22;20023;-87
2023/08/10 08:58:53;;;;;;;3.47;0.75;;;;;;;;;;6302800;22;20056;-86
2023/08/10 09:01:20;;;;;;;3.10;0.60;;;;;;;;;;6301504;22;20493;-88
2023/08/10 09:03:47;;;;;;;1.73;0.63;;;;;;;;;;6302723;22;20011;-88
2023/08/10 09:06:16;;;;;;;2.97;0.80;;;;;;;;;;6303176;22;20047;-87
2023/08/10 09:08:42;;;;;;;1.23;0.57;;;;;;;;;;6303555;22;20011;-87
2023/08/10 09:11:08;;;;;;;2.63;0.70;;;;;;;;;;6301904;22;20011;-87
2023/08/10 09:13:34;;;;;;;2.55;0.57;;;;;;;;;;6274620;22;20011;-88
2023/08/10 09:16:12;;;;;;;1.77;0.77;;;;;;;;;;6273167;22;20069;-88
2023/08/10 09:18:39;;;;;;;1.35;0.65;;;;;;;;;;6272516;22;20068;-89
2023/08/10 09:21:11;;;;;;;4.50;1.05;;;;;;;;;;6302756;22;20011;-90
2023/08/10 09:23:37;;;;;;;2.58;0.75;;;;;;;;;;6304886;22;20008;-90
2023/08/10 09:26:07;;;;;;;2.83;0.75;;;;;;;;;;6303114;22;20019;-90
2023/08/10 09:28:36;;;;;;;1.27;0.40;;;;;;;;;;6275142;22;20015;-90
2023/08/10 09:31:02;;;;;;;3.53;0.73;;;;;;;;;;6302482;22;20011;-90
2023/08/10 09:33:35;;;;;;;1.77;0.52;;;;;;;;;;6303058;22;20142;-90
2023/08/10 09:36:02;;;;;;;0.82;0.70;;;;;;;;;;6304065;22;20384;-91
2023/08/10 09:38:28;;;;;;;1.27;0.60;;;;;;;;;;6303492;22;20317;-90
2023/08/10 09:41:15;;;;;;;2.25;0.63;;;;;;;;;;6304184;22;20117;-95
2023/08/10 09:43:43;;;;;;;3.88;0.85;;;;;;;;;;6278520;22;20056;-90
2023/08/10 09:46:10;;;;;;;2.45;0.77;;;;;;;;;;6303615;22;20559;-93
2023/08/10 09:48:40;;;;;;;1.98;0.70;;;;;;;;;;6305231;22;20074;-92
2023/08/10 09:51:08;;;;;;;1.80;0.68;;;;;;;;;;6277709;22;20091;-93
2023/08/10 09:53:34;;;;;;;2.53;0.77;;;;;;;;;;6303522;22;20015;-96
2023/08/10 09:56:01;;;;;;;2.20;0.82;;;;;;;;;;6304634;22;20313;-96
2023/08/10 09:58:27;;;;;;;2.58;1.02;;;;;;;;;;6276431;22;20015;-95
2023/08/10 10:00:53;;;;;;;2.17;0.75;;;;;;;;;;6304450;22;20007;-91
2023/08/10 10:03:31;;;;;;;1.48;0.63;;;;;;;;;;6304582;22;20011;-92
2023/08/10 10:05:57;;;;;;;1.48;0.90;;;;;;;;;;6302230;22;20011;-91
2023/08/10 10:08:24;;;;;;;2.08;0.85;;;;;;;;;;6300314;22;20344;-91
2023/08/10 10:10:50;;;;;;;4.22;0.95;;;;;;;;;;6299572;22;20015;-90
2023/08/10 10:13:16;;;;;;;3.90;0.82;;;;;;;;;;6272163;22;20021;-90
2023/08/10 10:15:43;;;;;;;2.65;0.90;;;;;;;;;;6299898;22;20386;-90
2023/08/10 10:18:10;;;;;;;1.58;0.80;;;;;;;;;;6299681;22;20026;-92
2023/08/10 10:20:38;;;;;;;1.80;1.05;;;;;;;;;;6274739;22;20021;-92
2023/08/10 10:23:04;;;;;;;1.75;0.95;;;;;;;;;;6301623;22;20396;-92
2023/08/10 10:25:31;;;;;;;2.40;0.80;;;;;;;;;;6276412;22;20471;-92
2023/08/10 10:27:57;;;;;;;2.17;1.05;;;;;;;;;;6303419;22;20399;-92
2023/08/10 10:30:24;;;;;;;2.58;0.70;;;;;;;;;;6276574;22;20043;-96
2023/08/10 10:32:51;;;;;;;2.50;0.88;;;;;;;;;;6304290;22;20007;-94
2023/08/10 10:35:24;;;;;;;1.50;0.70;;;;;;;;;;6302988;22;20011;-92
2023/08/10 10:37:54;;;;;;;2.58;0.98;;;;;;;;;;6304336;22;20018;-89
2023/08/10 10:40:23;;;;;;;0.90;0.75;;;;;;;;;;6303883;22;20423;-92
2023/08/10 10:43:04;;;;;;;3.08;1.30;;;;;;;;;;6303465;22;20029;-90
2023/08/10 10:45:40;;;;;;;2.40;1.00;;;;;;;;;;6302732;22;20015;-90
2023/08/10 10:48:06;;;;;;;2.80;0.93;;;;;;;;;;6304382;22;20074;-90
2023/08/10 10:50:35;;;;;;;4.32;1.50;;;;;;;;;;6276124;22;20016;-95
2023/08/10 10:53:05;;;;;;;1.98;1.10;;;;;;;;;;6275279;22;20015;-92
2023/08/10 10:55:34;;;;;;;1.67;0.93;;;;;;;;;;6277003;22;20148;-94
2023/08/10 10:58:04;;;;;;;2.30;0.95;;;;;;;;;;6304254;22;20011;-94
2023/08/10 11:00:30;;;;;;;1.80;0.93;;;;;;;;;;6279206;22;20087;-92
2023/08/10 11:02:56;;;;;;;2.50;1.00;;;;;;;;;;6304253;22;20064;-92
2023/08/10 11:05:22;;;;;;;1.08;0.80;;;;;;;;;;6304732;22;20007;-92
2023/08/10 11:07:49;;;;;;;1.80;0.90;;;;;;;;;;6304838;22;20116;-91
2023/08/10 11:10:16;;;;;;;3.47;0.90;;;;;;;;;;6304774;22;20332;-93
2023/08/10 11:12:43;;;;;;;2.13;1.17;;;;;;;;;;6304560;22;20015;-96
2023/08/10 11:15:10;;;;;;;1.58;0.98;;;;;;;;;;6304394;22;20019;-93
2023/08/10 11:17:37;;;;;;;2.22;1.02;;;;;;;;;;6305227;22;20043;-94
2023/08/10 11:20:12;;;;;;;4.70;1.00;;;;;;;;;;6305019;22;20012;-93
2023/08/10 11:22:44;;;;;;;2.15;0.90;;;;;;;;;;6277835;22;20022;-94
2023/08/10 11:25:14;;;;;;;3.25;0.82;;;;;;;;;;6304509;22;20015;-92
2023/08/10 11:27:41;;;;;;;1.88;0.73;;;;;;;;;;6304034;22;20136;-94
2023/08/10 11:30:09;;;;;;;3.75;1.10;;;;;;;;;;6275178;22;20023;-89
2023/08/10 11:32:38;;;;;;;3.47;1.23;;;;;;;;;;6272523;22;20047;-87
2023/08/10 11:35:04;;;;;;;1.85;1.10;;;;;;;;;;6301289;22;20064;-87
2023/08/10 11:37:31;;;;;;;1.35;0.90;;;;;;;;;;6301764;22;20454;-86
2023/08/10 11:40:07;;;;;;;3.53;1.15;;;;;;;;;;6300335;22;20022;-87
2023/08/10 11:42:36;;;;;;;2.47;1.15;;;;;;;;;;6273833;22;20074;-87
2023/08/10 11:45:10;;;;;;;2.90;1.08;;;;;;;;;;6274074;22;20068;-86
2023/08/10 11:47:40;;;;;;;1.73;1.00;;;;;;;;;;6302580;22;20016;-87
2023/08/10 11:50:09;;;;;;;3.72;1.20;;;;;;;;;;6300936;22;20016;-87
2023/08/10 11:52:35;;;;;;;3.17;1.20;;;;;;;;;;6274981;22;20019;-91
2023/08/10 11:55:08;;;;;;;1.60;0.93;;;;;;;;;;6302049;22;20018;-87
2023/08/10 11:57:37;;;;;;;1.27;0.80;;;;;;;;;;6275779;22;20011;-89
2023/08/10 12:00:16;;;;;;;4.45;1.35;;;;;;;;;;6302063;22;20108;-90
2023/08/10 12:02:55;;;;;;;2.17;1.20;;;;;;;;;;6302563;22;20068;-90
2023/08/10 12:05:30;;;;;;;1.17;1.00;;;;;;;;;;6301471;22;20453;-89
2023/08/10 12:07:59;;;;;;;3.25;1.20;;;;;;;;;;6301533;22;20011;-90
2023/08/10 12:10:25;;;;;;;2.30;1.08;;;;;;;;;;6301471;22;20064;-91
2023/08/10 12:13:08;;;;;;;2.08;1.33;;;;;;;;;;6274372;22;20026;-89
2023/08/10 12:15:37;;;;;;;2.95;1.33;;;;;;;;;;6274078;22;20015;-89
2023/08/10 12:18:03;;;;;;;4.47;1.23;;;;;;;;;;6301313;22;20335;-90
2023/08/10 12:20:30;;;;;;;3.40;1.63;;;;;;;;;;6274567;22;20011;-90
2023/08/10 12:22:56;;;;;;;1.95;1.35;;;;;;;;;;6302283;22;20011;-90
2023/08/10 12:25:22;;;;;;;1.88;1.25;;;;;;;;;;6271508;22;20015;-90
2023/08/10 12:27:48;;;;;;;3.45;1.88;;;;;;;;;;6274650;22;20023;-90
2023/08/10 12:30:14;;;;;;;2.65;1.27;;;;;;;;;;6302037;22;20030;-91
2023/08/10 12:32:40;;;;;;;3.45;1.55;;;;;;;;;;6275141;22;20015;-90
2023/08/10 12:35:07;;;;;;;3.95;1.65;;;;;;;;;;6301875;22;20011;-94
2023/08/10 12:37:33;;;;;;;2.00;1.42;;;;;;;;;;6303140;22;20022;-92
2023/08/10 12:39:59;;;;;;;1.98;1.40;;;;;;;;;;6300234;22;20018;-90
2023/08/10 12:42:25;;;;;;;1.60;1.13;;;;;;;;;;6275053;22;20563;-90
2023/08/10 12:44:51;;;;;;;1.50;1.40;;;;;;;;;;6302576;22;20011;-88
2023/08/10 12:47:18;;;;;;;3.65;1.55;;;;;;;;;;6274449;22;20018;-88
2023/08/10 12:49:44;;;;;;;4.35;1.30;;;;;;;;;;6302763;22;20007;-88
2023/08/10 12:52:10;;;;;;;4.65;1.60;;;;;;;;;;6274297;22;20324;-88
2023/08/10 12:54:36;;;;;;;4.30;1.60;;;;;;;;;;6301745;22;20008;-88
2023/08/10 12:57:04;;;;;;;2.47;1.42;;;;;;;;;;6276512;22;20037;-88
2023/08/10 12:59:30;;;;;;;3.58;1.67;;;;;;;;;;6305338;22;20015;-89
2023/08/10 13:01:56;;;;;;;3.13;1.30;;;;;;;;;;6279296;22;20558;-88
2023/08/10 13:04:22;;;;;;;3.78;1.70;;;;;;;;;;6277690;22;20015;-90
2023/08/10 13:06:48;;;;;;;5.68;1.50;;;;;;;;;;6304384;22;20035;-89
2023/08/10 13:09:14;;;;;;;3.75;1.45;;;;;;;;;;6302950;22;20019;-85
2023/08/10 13:11:40;;;;;;;2.75;1.42;;;;;;;;;;6277666;22;20050;-87
2023/08/10 13:14:06;;;;;;;3.20;1.60;;;;;;;;;;6276329;22;20015;-86
2023/08/10 13:16:32;;;;;;;2.38;1.60;;;;;;;;;;6303461;22;20037;-86
2023/08/10 13:18:58;;;;;;;1.90;1.30;;;;;;;;;;6303614;22;20019;-86
2023/08/10 13:21:25;;;;;;;3.88;1.50;;;;;;;;;;6277792;22;20341;-85
2023/08/10 13:23:51;;;;;;;2.40;1.48;;;;;;;;;;6304218;22;20043;-86
2023/08/10 13:26:16;;;;;;;2.75;1.70;;;;;;;;;;6302837;22;20442;-87
2023/08/10 13:28:43;;;;;;;3.03;1.42;;;;;;;;;;6251751;22;20022;-86
2023/08/10 13:31:09;;;;;;;3.53;1.42;;;;;;;;;;6303707;22;20813;-86
2023/08/10 13:33:35;;;;;;;3.25;2.13;;;;;;;;;;6304958;22;20019;-85
2023/08/10 13:36:01;;;;;;;2.65;1.60;;;;;;;;;;6303805;22;20011;-85
2023/08/10 13:38:27;;;;;;;3.22;2.08;;;;;;;;;;6276199;22;20090;-86
2023/08/10 13:40:53;;;;;;;3.35;1.92;;;;;;;;;;6304048;22;20015;-85
2023/08/10 13:43:19;;;;;;;3.42;2.15;;;;;;;;;;6303793;22;20466;-85
2023/08/10 13:45:45;;;;;;;3.10;1.73;;;;;;;;;;6305116;22;20204;-85
2023/08/10 13:48:11;;;;;;;2.90;2.45;;;;;;;;;;6302884;22;20066;-86
2023/08/10 13:50:37;;;;;;;3.83;2.50;;;;;;;;;;6304927;22;20011;-85
2023/08/10 13:53:03;;;;;;;2.80;2.50;;;;;;;;;;6276089;22;20092;-87
2023/08/10 13:55:30;;;;;;;4.68;2.60;;;;;;;;;;6276470;22;20054;-86
2023/08/10 13:57:56;;;;;;;3.88;2.35;;;;;;;;;;6304285;22;20011;-91
2023/08/10 14:00:22;;;;;;;5.82;3.03;;;;;;;;;;6303122;22;20333;-88
2023/08/10 14:02:48;;;;;;;4.13;2.63;;;;;;;;;;6304622;22;20015;-86
2023/08/10 14:05:14;;;;;;;3.67;2.15;;;;;;;;;;6276746;22;20313;-87
2023/08/10 14:07:40;;;;;;;2.20;1.98;;;;;;;;;;6303393;22;20018;-86
2023/08/10 14:10:06;;;;;;;3.28;2.08;;;;;;;;;;6276597;22;20317;-86
2023/08/10 14:12:32;;;;;;;3.53;2.67;;;;;;;;;;6276774;22;20076;-86
2023/08/10 14:14:58;;;;;;;3.83;2.67;;;;;;;;;;6303288;22;20014;-86
2023/08/10 14:17:24;;;;;;;3.65;2.30;;;;;;;;;;6304376;22;20039;-87
2023/08/10 14:19:50;;;;;;;3.15;2.17;;;;;;;;;;6302739;22;20014;-86
2023/08/10 14:22:16;;;;;;;2.53;2.15;;;;;;;;;;6303620;22;20041;-86
2023/08/10 14:24:42;;;;;;;4.32;2.60;;;;;;;;;;6305052;22;20056;-86
2023/08/10 14:27:09;;;;;;;5.22;2.88;;;;;;;;;;6276333;22;20509;-86
2023/08/10 14:29:35;;;;;;;4.53;2.30;;;;;;;;;;6304149;22;20015;-90
2023/08/10 14:32:01;;;;;;;3.55;2.40;;;;;;;;;;6276466;22;20030;-85
2023/08/10 14:34:27;;;;;;;4.80;2.40;;;;;;;;;;6275526;22;20050;-86
2023/08/10 14:36:53;;;;;;;3.95;2.70;;;;;;;;;;6276467;22;20053;-86
2023/08/10 14:39:19;;;;;;;5.30;2.72;;;;;;;;;;6303290;22;20061;-86
2023/08/10 14:41:50;;;;;;;5.10;3.20;;;;;;;;;;6304436;22;20371;-87